Erval Velho, Brazil
Current Conditions -  °F | °C
As of 6:00 PM on Sunday 21 Dec 2014 (Local Time) from SBCH Reporting Station
Thunderstorm Thunderstorm  
Wind Chill: 68°   Ceiling: 300
Heat Index: 68°   Visibility: 0.68mi
Dew Point: 68°   Wind: 16mph
Humidity: 100%   Direction: 300°WNW
Pressure: 29.68"   Gusts: NA
Location:  27.26°S, 51.24°W
Report Text: SBCH 212000Z 30014KT 1100 -TSRA BR BKN003 BKN020 FEW030CB OVC090 20/20 Q1005
Loading
Personal Weather Stations






























Interactive Weather Map New forecast layout! Learn more

10-Day Weather Forecast

Advertisements
Track Severe Weather on mobile